Página principal
METAR-TAF:

METAR-TAF

Aeroportos :

Bagdá, Iraque

Aeroporto Internacional de Bagdad

latitude: 33-15-45N, longitude: 44-14-04E, altura: 35 m

Observação actual do tempo

O boletim foi feito há 49 minutos, às 23:00 UTC
Vento 9 kt de nor-noroeste
Temperatura 33°C
Humidade 23%
Pressão 1004 hPa
Visibilidade 10 km ou mais
sem nuvens abaixo de 1500 metros e sem cumulonimbus

METAR: ORBI 182300Z 33009KT CAVOK 33/09 Q1004 NOSIG

Hora: 02:49 (23:49 UTC)

Previsão

O boletim foi feito há 7 horas e 49 minutos, às 16:00 UTC
Previsão válida de 18 às 18 UTC a 19 às 18 UTC
Vento 10 kt de norte
Visibilidade 10 km ou mais
sem nuvens abaixo de 1500 metros e sem cumulonimbus

TAF: ORBI 181600Z 1818/1918 35010KT CAVOK

Observações e previsões do tempo de mais de 4000 aeroportos (mensagens METAR e TAF).

As estações disponíveis são os pontos amarelos e vermelhos sobre o mapa.

Mova o rato sobre o mapa para ver o nome da estação.

Depois clique no ponto para visualizar as observações e previsões meteorológicas.

Para alterar o mapa : clique nos botões verdes com uma cruz preta para aumentar o zoom; no botão verde com uma pitada de zoom; ou nas setas verdes para mapas adjacentes.


METAR-TAF: